createdAt,value
2018-02-27T00:01:12.551Z,92.85
2018-02-27T00:02:26.547Z,93.13
2018-02-27T00:03:40.597Z,93.04
2018-02-27T00:04:54.928Z,92.95
2018-02-27T00:06:09.404Z,92.85
2018-02-27T00:07:23.174Z,92.57
2018-02-27T00:08:37.452Z,92.95
2018-02-27T00:09:51.529Z,92.76
2018-02-27T00:11:05.768Z,92.19
2018-02-27T00:12:20.046Z,92.29
2018-02-27T00:13:34.028Z,92.47
2018-02-27T00:14:48.495Z,91.72
2018-02-27T00:16:02.799Z,91.63
2018-02-27T00:17:16.808Z,91.53
2018-02-27T00:18:30.816Z,91.16
2018-02-27T00:19:44.798Z,90.87
2018-02-27T00:20:59.272Z,91.25
2018-02-27T00:22:13.533Z,91.06
2018-02-27T00:23:27.546Z,91.25
2018-02-27T00:24:41.538Z,91.06
2018-02-27T00:25:55.548Z,91.25
2018-02-27T00:27:09.038Z,91.35
2018-02-27T00:28:22.563Z,91.91
2018-02-27T00:29:36.596Z,91.91
2018-02-27T00:30:50.587Z,91.72
2018-02-27T00:32:04.848Z,92.19
2018-02-27T00:33:18.092Z,92.29
2018-02-27T00:34:32.137Z,93.32
2018-02-27T00:35:45.639Z,93.89
2018-02-27T00:36:59.914Z,94.93
2018-02-27T00:38:14.295Z,95.78
2018-02-27T00:39:27.826Z,96.15
2018-02-27T00:40:42.095Z,96.81
2018-02-27T00:41:55.420Z,96.44
2018-02-27T00:43:09.428Z,96.25
2018-02-27T00:44:23.633Z,95.4
2018-02-27T00:45:37.372Z,95.4
2018-02-27T00:46:51.904Z,95.21
2018-02-27T00:48:05.416Z,95.12
2018-02-27T00:49:19.909Z,93.89
2018-02-27T00:50:33.383Z,93.51
2018-02-27T00:51:47.623Z,93.04
2018-02-27T00:53:02.419Z,93.23
2018-02-27T00:54:16.894Z,92.76
2018-02-27T00:55:30.635Z,92.29
2018-02-27T00:56:44.845Z,91.72
2018-02-27T00:57:59.101Z,91.91
2018-02-27T00:59:13.617Z,91.16
2018-02-27T01:00:28.097Z,90.68
2018-02-27T01:01:42.582Z,90.59
2018-02-27T01:02:57.072Z,90.21
2018-02-27T01:04:10.815Z,89.93
2018-02-27T01:05:24.800Z,89.93
2018-02-27T01:06:38.503Z,89.55
2018-02-27T01:07:52.779Z,88.98
2018-02-27T01:09:06.567Z,88.6
2018-02-27T01:10:20.847Z,88.42
2018-02-27T01:11:35.263Z,87.66
2018-02-27T01:12:49.740Z,86.72
2018-02-27T01:14:04.244Z,86.44
2018-02-27T01:15:18.720Z,85.59
2018-02-27T01:16:32.456Z,85.4
2018-02-27T01:17:46.510Z,84.55
2018-02-27T01:19:00.515Z,84.64
2018-02-27T01:20:14.517Z,84.08
2018-02-27T01:21:29.012Z,84.27
2018-02-27T01:22:43.237Z,83.8
2018-02-27T01:23:57.600Z,83.98
2018-02-27T01:25:11.335Z,83.7
2018-02-27T01:26:26.091Z,82.76
2018-02-27T01:27:40.811Z,82.1
2018-02-27T01:28:55.291Z,82
2018-02-27T01:30:09.344Z,81.53
2018-02-27T01:31:23.095Z,80.87
2018-02-27T01:32:37.300Z,80.54
2018-02-27T01:33:51.788Z,80.64
2018-02-27T01:35:05.782Z,80.45
2018-02-27T01:36:20.807Z,80.64
2018-02-27T01:37:35.009Z,80.45
2018-02-27T01:38:49.245Z,79.79
2018-02-27T01:40:03.954Z,79.79
2018-02-27T01:41:17.971Z,79.98
2018-02-27T01:42:31.964Z,79.98
2018-02-27T01:43:46.209Z,80.26
2018-02-27T01:45:00.547Z,79.79
2018-02-27T01:46:14.300Z,79.88
2018-02-27T01:47:27.802Z,79.88
2018-02-27T01:48:42.283Z,79.5
2018-02-27T01:49:56.238Z,79.88
2018-02-27T01:51:10.033Z,79.69
2018-02-27T01:52:23.798Z,79.98
2018-02-27T01:53:37.555Z,80.36
2018-02-27T01:54:52.102Z,81.02
2018-02-27T01:56:06.831Z,81.3
2018-02-27T01:57:20.593Z,82.15
2018-02-27T01:58:34.826Z,82.43
2018-02-27T01:59:49.310Z,83.28
2018-02-27T02:01:04.387Z,83.65
2018-02-27T02:02:18.892Z,83.94
2018-02-27T02:03:33.431Z,83.37
2018-02-27T02:04:47.436Z,83.37
2018-02-27T02:06:01.449Z,83.65
2018-02-27T02:07:16.178Z,83.56
2018-02-27T02:08:30.408Z,82.9
2018-02-27T02:09:44.404Z,82.43
2018-02-27T02:10:57.858Z,82.06
2018-02-27T02:12:11.602Z,81.49
2018-02-27T02:13:25.847Z,81.11
2018-02-27T02:14:39.843Z,80.54
2018-02-27T02:15:54.552Z,80.92
2018-02-27T02:17:09.038Z,80.45
2018-02-27T02:18:22.921Z,80.54
2018-02-27T02:19:37.468Z,80.83
2018-02-27T02:20:51.743Z,80.73
2018-02-27T02:22:05.793Z,79.69
2018-02-27T02:23:19.289Z,78.66
2018-02-27T02:24:34.006Z,78.56
2018-02-27T02:25:48.513Z,78.09
2018-02-27T02:27:02.523Z,77.34
2018-02-27T02:28:17.009Z,76.96
2018-02-27T02:29:31.002Z,76.4
2018-02-27T02:30:45.017Z,76.11
2018-02-27T02:31:59.549Z,76.3
2018-02-27T02:33:14.022Z,76.11
2018-02-27T02:34:28.067Z,76.11
2018-02-27T02:35:42.322Z,75.64
2018-02-27T02:36:56.309Z,75.64
2018-02-27T02:38:10.993Z,75.26
2018-02-27T02:39:25.471Z,74.79
2018-02-27T02:40:39.469Z,74.79
2018-02-27T02:41:53.441Z,74.88
2018-02-27T02:43:07.003Z,74.88
2018-02-27T02:44:21.758Z,74.32
2018-02-27T02:45:36.252Z,73.85
2018-02-27T02:46:50.483Z,72.72
2018-02-27T02:48:04.452Z,72.15
2018-02-27T02:49:33.610Z,70.73
2018-02-27T02:50:47.879Z,70.36
2018-02-27T02:52:02.145Z,70.26
2018-02-27T02:53:16.640Z,70.45
2018-02-27T02:54:29.665Z,70.73
2018-02-27T02:55:44.176Z,70.73
2018-02-27T02:56:58.229Z,71.3
2018-02-27T02:58:12.238Z,71.11
2018-02-27T02:59:26.891Z,72.06
2018-02-27T03:00:40.964Z,72.06
2018-02-27T03:01:55.196Z,72.44
2018-02-27T03:03:09.671Z,72.81
2018-02-27T03:04:24.490Z,73.66
2018-02-27T03:05:38.759Z,73.85
2018-02-27T03:06:53.228Z,74.51
2018-02-27T03:08:06.952Z,75.54
2018-02-27T03:09:21.528Z,76.21
2018-02-27T03:10:35.313Z,76.58
2018-02-27T03:11:49.807Z,77.15
2018-02-27T03:13:04.313Z,77.91
2018-02-27T03:14:18.806Z,77.53
2018-02-27T03:15:33.110Z,77.62
2018-02-27T03:16:47.343Z,77.81
2018-02-27T03:18:02.087Z,78.38
2018-02-27T03:19:16.059Z,78.19
2018-02-27T03:20:30.561Z,78.09
2018-02-27T03:21:45.594Z,78.38
2018-02-27T03:22:59.848Z,78.52
2018-02-27T03:24:13.731Z,78.62
2018-02-27T03:25:27.952Z,79
2018-02-27T03:26:42.189Z,78.71
2018-02-27T03:27:56.740Z,77.96
2018-02-27T03:29:10.734Z,78.34
2018-02-27T03:30:25.486Z,78.05
2018-02-27T03:31:39.499Z,78.24
2018-02-27T03:32:53.263Z,77.96
2018-02-27T03:34:07.592Z,78.81
2018-02-27T03:35:22.072Z,79.19
2018-02-27T03:36:36.275Z,78.52
2018-02-27T03:37:50.524Z,79.09
2018-02-27T03:39:04.764Z,79
2018-02-27T03:40:18.975Z,79.28
2018-02-27T03:41:32.690Z,79.75
2018-02-27T03:42:46.640Z,80.32
2018-02-27T03:44:00.834Z,81.07
2018-02-27T03:45:14.810Z,81.26
2018-02-27T03:46:29.088Z,81.26
2018-02-27T03:47:43.315Z,80.88
2018-02-27T03:48:57.055Z,80.6
2018-02-27T03:50:11.299Z,81.07
2018-02-27T03:51:25.302Z,80.32
2018-02-27T03:52:40.014Z,80.6
2018-02-27T03:53:53.740Z,80.41
2018-02-27T03:55:07.740Z,80.6
2018-02-27T03:56:21.996Z,80.13
2018-02-27T03:57:36.579Z,80.41
2018-02-27T03:58:50.406Z,80.41
2018-02-27T04:00:04.655Z,80.79
2018-02-27T04:01:19.176Z,80.41
2018-02-27T04:02:33.650Z,80.32
2018-02-27T04:03:47.160Z,80.32
2018-02-27T04:05:02.178Z,80.6
2018-02-27T04:06:16.458Z,80.6
2018-02-27T04:07:30.452Z,80.69
2018-02-27T04:08:44.897Z,80.41
2018-02-27T04:09:59.399Z,80.6
2018-02-27T04:11:13.675Z,80.13
2018-02-27T04:12:27.883Z,80.13
2018-02-27T04:13:41.883Z,79.94
2018-02-27T04:14:56.094Z,79.75
2018-02-27T04:16:10.395Z,79.75
2018-02-27T04:17:24.949Z,79.94
2018-02-27T04:18:39.458Z,79.47
2018-02-27T04:19:53.456Z,79.75
2018-02-27T04:21:07.233Z,79.85
2018-02-27T04:22:20.781Z,79.75
2018-02-27T04:23:35.344Z,79.75
2018-02-27T04:24:49.081Z,79.66
2018-02-27T04:26:02.874Z,79.66
2018-02-27T04:27:16.679Z,79.94
2018-02-27T04:28:30.678Z,80.32
2018-02-27T04:29:45.728Z,80.32
2018-02-27T04:30:59.603Z,80.79
2018-02-27T04:32:13.450Z,80.79
2018-02-27T04:33:27.840Z,80.6
2018-02-27T04:34:42.167Z,80.6
2018-02-27T04:35:55.725Z,81.16
2018-02-27T04:37:10.187Z,81.16
2018-02-27T04:40:37.940Z,81.45
2018-02-27T04:41:52.706Z,81.16
2018-02-27T04:43:06.711Z,81.35
2018-02-27T04:44:21.118Z,81.26
2018-02-27T04:45:35.174Z,81.16
2018-02-27T04:46:48.984Z,80.51
2018-02-27T04:48:03.273Z,80.51
2018-02-27T04:49:17.304Z,80.6
2018-02-27T04:50:31.317Z,80.51
2018-02-27T04:51:45.562Z,80.6
2018-02-27T04:52:59.577Z,80.51
2018-02-27T04:54:13.697Z,80.88
2018-02-27T04:55:27.723Z,80.69
2018-02-27T04:56:42.005Z,80.69
2018-02-27T04:57:56.243Z,80.69
2018-02-27T04:59:09.998Z,80.69
2018-02-27T05:00:23.981Z,80.88
2018-02-27T05:01:38.222Z,81.45
2018-02-27T05:02:52.731Z,81.26
2018-02-27T05:04:07.093Z,81.07
2018-02-27T05:05:21.354Z,81.35
2018-02-27T05:06:35.871Z,81.26
2018-02-27T05:07:50.615Z,81.35
2018-02-27T05:09:04.824Z,81.16
2018-02-27T05:10:19.067Z,81.26
2018-02-27T05:11:32.784Z,80.98
2018-02-27T05:12:47.100Z,80.98
2018-02-27T05:14:00.417Z,81.07
2018-02-27T05:15:14.483Z,80.88
2018-02-27T05:16:29.004Z,81.45
2018-02-27T05:17:42.839Z,81.45
2018-02-27T05:18:56.924Z,81.35
2018-02-27T05:20:11.168Z,80.51
2018-02-27T05:21:25.403Z,80.41
2018-02-27T05:22:39.650Z,80.6
2018-02-27T05:23:53.876Z,80.41
2018-02-27T05:25:07.930Z,80.41
2018-02-27T05:26:21.970Z,79.94
2018-02-27T05:27:35.698Z,79.66
2018-02-27T05:28:49.711Z,79.85
2018-02-27T05:30:03.711Z,80.32
2018-02-27T05:31:17.557Z,80.13
2018-02-27T05:32:31.564Z,80.32
2018-02-27T05:33:45.539Z,79.85
2018-02-27T05:34:59.813Z,79.99
2018-02-27T05:36:14.068Z,79.75
2018-02-27T05:37:28.723Z,79.47
2018-02-27T05:38:42.228Z,78.86
2018-02-27T05:39:56.474Z,78.9
2018-02-27T05:41:10.450Z,78.96
2018-02-27T05:42:24.228Z,79.24
2018-02-27T05:43:39.014Z,79.71
2018-02-27T05:44:53.288Z,79.99
2018-02-27T05:46:07.028Z,79.61
2018-02-27T05:47:21.266Z,79.9
2018-02-27T05:48:35.251Z,79.43
2018-02-27T05:49:49.580Z,79.61
2018-02-27T05:51:03.610Z,80.46
2018-02-27T05:52:17.883Z,80.46
2018-02-27T05:53:31.662Z,80.08
2018-02-27T05:54:45.688Z,80.37
2018-02-27T05:56:00.247Z,80.08
2018-02-27T05:57:14.521Z,79.52
2018-02-27T05:58:28.549Z,79.8
2018-02-27T05:59:42.137Z,80.37
2018-02-27T06:00:56.821Z,79.52
2018-02-27T06:02:11.127Z,80.46
2018-02-27T06:03:25.158Z,80.08
2018-02-27T06:04:39.190Z,80.08
2018-02-27T06:05:53.242Z,80.27
2018-02-27T06:07:06.775Z,79.61
2018-02-27T06:08:21.343Z,79.52
2018-02-27T06:09:35.626Z,79.71
2018-02-27T06:10:49.776Z,80.18
2018-02-27T06:12:04.312Z,79.99
2018-02-27T06:13:18.064Z,79.9
2018-02-27T06:14:32.916Z,79.52
2018-02-27T06:15:46.941Z,79.71
2018-02-27T06:17:01.215Z,78.86
2018-02-27T06:18:15.245Z,78.86
2018-02-27T06:19:29.290Z,78.3
2018-02-27T06:20:43.618Z,78.3
2018-02-27T06:21:57.646Z,78.11
2018-02-27T06:23:26.829Z,77.55
2018-02-27T06:24:40.575Z,77.45
2018-02-27T06:25:54.823Z,77.07
2018-02-27T06:27:08.882Z,77.36
2018-02-27T06:28:23.576Z,76.79
2018-02-27T06:29:37.365Z,76.6
2018-02-27T06:30:51.163Z,76.7
2018-02-27T06:32:05.401Z,77.26
2018-02-27T06:33:19.741Z,77.26
2018-02-27T06:34:33.776Z,76.7
2018-02-27T06:35:48.036Z,76.98
2018-02-27T06:37:02.516Z,77.26
2018-02-27T06:38:16.763Z,77.36
2018-02-27T06:39:31.830Z,77.26
2018-02-27T06:40:46.097Z,77.17
2018-02-27T06:42:00.856Z,77.17
2018-02-27T06:43:14.975Z,76.7
2018-02-27T06:44:29.214Z,76.51
2018-02-27T06:45:43.781Z,76.89
2018-02-27T06:46:57.997Z,76.89
2018-02-27T06:48:12.541Z,76.04
2018-02-27T06:49:26.867Z,75.56
2018-02-27T06:50:41.385Z,75.38
2018-02-27T06:51:55.456Z,75.19
2018-02-27T06:53:09.506Z,75.28
2018-02-27T06:54:23.517Z,75.47
2018-02-27T06:55:37.506Z,75.85
2018-02-27T06:56:51.529Z,75.75
2018-02-27T06:58:05.849Z,75.66
2018-02-27T06:59:19.587Z,76.13
2018-02-27T07:00:33.587Z,75.85
2018-02-27T07:01:47.838Z,75.85
2018-02-27T07:03:01.326Z,75.09
2018-02-27T07:04:15.589Z,74.9
2018-02-27T07:05:29.614Z,75.56
2018-02-27T07:06:43.873Z,75.66
2018-02-27T07:07:58.099Z,75.85
2018-02-27T07:09:12.343Z,75.38
2018-02-27T07:10:27.141Z,75.56
2018-02-27T07:11:41.608Z,75.47
2018-02-27T07:12:55.120Z,74.71
2018-02-27T07:14:09.129Z,75.28
2018-02-27T07:15:23.346Z,74.9
2018-02-27T07:16:37.494Z,74.9
2018-02-27T07:17:51.768Z,74.71
2018-02-27T07:19:05.847Z,74.05
2018-02-27T07:20:20.129Z,73.68
2018-02-27T07:21:33.924Z,73.77
2018-02-27T07:22:48.188Z,73.77
2018-02-27T07:24:02.197Z,73.58
2018-02-27T07:25:16.694Z,73.68
2018-02-27T07:26:31.180Z,73.58
2018-02-27T07:27:45.931Z,73.96
2018-02-27T07:29:00.226Z,74.53
2018-02-27T07:30:14.347Z,73.49
2018-02-27T07:31:28.596Z,73.58
2018-02-27T07:32:42.086Z,73.77
2018-02-27T07:33:55.816Z,73.58
2018-02-27T07:35:10.133Z,73.58
2018-02-27T07:36:24.507Z,73.68
2018-02-27T07:37:38.766Z,73.87
2018-02-27T07:38:53.229Z,73.21
2018-02-27T07:40:06.963Z,73.49
2018-02-27T07:41:21.264Z,73.21
2018-02-27T07:42:35.506Z,72.83
2018-02-27T07:43:49.795Z,72.92
2018-02-27T07:45:04.288Z,72.74
2018-02-27T07:46:18.051Z,73.11
2018-02-27T07:47:32.839Z,72.83
2018-02-27T07:48:47.090Z,72.55
2018-02-27T07:50:01.683Z,72.64
2018-02-27T07:51:16.151Z,72.64
2018-02-27T07:52:30.436Z,72.74
2018-02-27T07:53:44.857Z,72.36
2018-02-27T07:54:58.935Z,72.36
2018-02-27T07:56:13.222Z,72.17
2018-02-27T07:57:26.961Z,72.45
2018-02-27T07:58:41.677Z,72.08
2018-02-27T07:59:55.964Z,71.89
2018-02-27T08:01:09.954Z,71.89
2018-02-27T08:02:23.995Z,71.7
2018-02-27T08:03:37.729Z,71.98
2018-02-27T08:04:52.434Z,72.17
2018-02-27T08:06:07.062Z,71.89
2018-02-27T08:07:21.066Z,71.89
2018-02-27T08:08:35.565Z,72.08
2018-02-27T08:09:49.828Z,71.8
2018-02-27T08:11:04.023Z,71.61
2018-02-27T08:12:18.336Z,71.7
2018-02-27T08:13:32.588Z,71.98
2018-02-27T08:14:46.595Z,71.7
2018-02-27T08:16:00.589Z,71.8
2018-02-27T08:17:14.631Z,71.7
2018-02-27T08:18:28.679Z,71.33
2018-02-27T08:19:42.932Z,71.64
2018-02-27T08:20:56.696Z,71.26
2018-02-27T08:22:11.204Z,71.55
2018-02-27T08:23:25.558Z,71.26
2018-02-27T08:24:39.893Z,70.79
2018-02-27T08:25:53.879Z,70.79
2018-02-27T08:27:08.157Z,70.7
2018-02-27T08:28:22.144Z,70.61
2018-02-27T08:29:35.921Z,70.32
2018-02-27T08:30:50.779Z,70.51
2018-02-27T08:32:05.037Z,70.42
2018-02-27T08:33:18.802Z,70.51
2018-02-27T08:34:33.099Z,70.7
2018-02-27T08:35:47.351Z,70.23
2018-02-27T08:37:01.973Z,70.04
2018-02-27T08:38:16.011Z,69.85
2018-02-27T08:39:30.567Z,69.95
2018-02-27T08:40:44.823Z,70.04
2018-02-27T08:41:59.074Z,70.32
2018-02-27T08:43:13.377Z,70.14
2018-02-27T08:44:27.402Z,70.04
2018-02-27T08:45:41.182Z,69.38
2018-02-27T08:46:55.398Z,68.72
2018-02-27T08:48:09.174Z,68.91
2018-02-27T08:49:23.408Z,68.06
2018-02-27T08:50:37.207Z,67.68
2018-02-27T08:51:51.461Z,67.68
2018-02-27T08:53:05.493Z,66.74
2018-02-27T08:54:19.240Z,67.3
2018-02-27T08:55:34.004Z,67.3
2018-02-27T08:56:48.635Z,67.21
2018-02-27T08:58:02.474Z,67.21
2018-02-27T08:59:16.246Z,66.64
2018-02-27T09:00:30.753Z,66.17
2018-02-27T09:01:45.302Z,65.99
2018-02-27T09:02:59.857Z,65.99
2018-02-27T09:04:13.667Z,65.99
2018-02-27T09:05:27.665Z,66.27
2018-02-27T09:06:42.198Z,66.27
2018-02-27T09:07:56.985Z,66.64
2018-02-27T09:09:10.767Z,66.55
2018-02-27T09:10:24.564Z,66.55
2018-02-27T09:11:38.831Z,65.8
2018-02-27T09:12:52.850Z,65.7
2018-02-27T09:14:07.145Z,65.89
2018-02-27T09:15:20.903Z,65.8
2018-02-27T09:16:34.899Z,65.99
2018-02-27T09:17:48.909Z,65.8
2018-02-27T09:19:02.402Z,65.7
2018-02-27T09:20:17.341Z,66.17
2018-02-27T09:21:31.584Z,66.08
2018-02-27T09:22:45.586Z,65.99
2018-02-27T09:23:59.615Z,66.08
2018-02-27T09:25:13.899Z,65.99
2018-02-27T09:26:28.002Z,66.08
2018-02-27T09:27:41.514Z,65.52
2018-02-27T09:28:55.735Z,65.52
2018-02-27T09:30:09.402Z,65.52
2018-02-27T09:31:23.512Z,65.14
2018-02-27T09:32:38.535Z,64.76
2018-02-27T09:33:52.561Z,64.76
2018-02-27T09:35:07.108Z,65.14
2018-02-27T09:36:21.379Z,65.23
2018-02-27T09:37:35.196Z,64.95
2018-02-27T09:38:50.137Z,64.58
2018-02-27T09:40:04.462Z,64.86
2018-02-27T09:41:18.969Z,64.86
2018-02-27T09:42:33.243Z,64.48
2018-02-27T09:43:46.994Z,64.48
2018-02-27T09:45:01.080Z,64.48
2018-02-27T09:46:15.320Z,64.86
2018-02-27T09:47:29.568Z,64.67
2018-02-27T09:48:43.577Z,64.39
2018-02-27T09:49:57.101Z,64.2
2018-02-27T09:51:11.641Z,63.73
2018-02-27T09:52:25.614Z,63.54
2018-02-27T09:53:40.099Z,63.44
2018-02-27T09:54:53.866Z,63.25
2018-02-27T09:56:08.383Z,63.35
2018-02-27T09:57:22.906Z,62.69
2018-02-27T09:58:37.148Z,63.06
2018-02-27T09:59:51.512Z,63.35
2018-02-27T10:01:05.786Z,63.06
2018-02-27T10:02:20.034Z,62.88
2018-02-27T10:03:34.137Z,62.59
2018-02-27T10:05:03.313Z,62.69
2018-02-27T10:06:18.173Z,62.97
2018-02-27T10:07:32.437Z,62.78
2018-02-27T10:08:46.998Z,62.97
2018-02-27T10:10:01.011Z,62.69
2018-02-27T10:11:14.770Z,62.4
2018-02-27T10:12:29.036Z,62.69
2018-02-27T10:13:43.340Z,63.06
2018-02-27T10:14:58.130Z,62.97
2018-02-27T10:16:12.154Z,63.16
2018-02-27T10:17:26.200Z,63.06
2018-02-27T10:18:40.224Z,62.88
2018-02-27T10:19:54.474Z,63.1
2018-02-27T10:21:08.834Z,62.88
2018-02-27T10:22:22.849Z,63
2018-02-27T10:23:37.099Z,62.62
2018-02-27T10:24:51.564Z,62.62
2018-02-27T10:26:05.869Z,62.06
2018-02-27T10:27:19.673Z,62.5
2018-02-27T10:28:34.066Z,62.4
2018-02-27T10:29:47.853Z,62.81
2018-02-27T10:31:02.412Z,62.25
2018-02-27T10:32:16.958Z,61.68
2018-02-27T10:33:31.804Z,61.77
2018-02-27T10:34:46.071Z,61.77
2018-02-27T10:36:00.834Z,61.68
2018-02-27T10:37:15.116Z,61.96
2018-02-27T10:38:29.608Z,61.58
2018-02-27T10:39:43.943Z,61.21
2018-02-27T10:40:58.700Z,61.02
2018-02-27T10:42:12.457Z,61.11
2018-02-27T10:43:26.503Z,60.46
2018-02-27T10:44:40.484Z,60.93
2018-02-27T10:45:55.032Z,60.36
2018-02-27T10:47:09.253Z,59.99
2018-02-27T10:48:23.768Z,59.89
2018-02-27T10:49:38.007Z,60.08
2018-02-27T10:50:51.992Z,59.99
2018-02-27T10:52:06.825Z,59.89
2018-02-27T10:53:21.304Z,59.23
2018-02-27T10:54:35.812Z,59.04
2018-02-27T10:55:49.830Z,59.33
2018-02-27T10:57:04.324Z,59.51
2018-02-27T10:58:19.264Z,59.61
2018-02-27T10:59:33.285Z,59.14
2018-02-27T11:00:47.583Z,59.14
2018-02-27T11:02:01.870Z,59.23
2018-02-27T11:03:16.104Z,59.14
2018-02-27T11:04:30.424Z,58.76
2018-02-27T11:05:44.175Z,58.76
2018-02-27T11:06:58.929Z,58.47
2018-02-27T11:08:13.443Z,58.1
2018-02-27T11:09:27.099Z,57.91
2018-02-27T11:10:41.654Z,57.91
2018-02-27T11:11:56.431Z,57.72
2018-02-27T11:13:10.458Z,58.29
2018-02-27T11:14:24.971Z,58.19
2018-02-27T11:15:39.432Z,57.91
2018-02-27T11:16:53.508Z,57.72
2018-02-27T11:18:07.760Z,57.53
2018-02-27T11:19:22.239Z,57.62
2018-02-27T11:20:36.485Z,57.72
2018-02-27T11:21:50.966Z,57.53
2018-02-27T11:23:05.731Z,57.91
2018-02-27T11:24:19.970Z,57.72
2018-02-27T11:25:33.965Z,57.53
2018-02-27T11:26:48.679Z,58
2018-02-27T11:28:02.464Z,57.81
2018-02-27T11:29:17.006Z,57.62
2018-02-27T11:30:31.001Z,57.62
2018-02-27T11:31:44.830Z,58.19
2018-02-27T11:32:59.083Z,57.75
2018-02-27T11:34:13.656Z,57.28
2018-02-27T11:35:27.414Z,56.99
2018-02-27T11:36:40.660Z,57.18
2018-02-27T11:37:54.648Z,57.09
2018-02-27T11:39:08.251Z,56.71
2018-02-27T11:40:22.963Z,56.34
2018-02-27T11:41:36.976Z,56.24
2018-02-27T11:42:51.138Z,56.59
2018-02-27T11:44:05.746Z,56.4
2018-02-27T11:45:19.504Z,56.24
2018-02-27T11:46:33.551Z,56.43
2018-02-27T11:47:48.108Z,56.21
2018-02-27T11:49:02.655Z,56.34
2018-02-27T11:50:17.465Z,56.24
2018-02-27T11:51:32.212Z,56.43
2018-02-27T11:52:45.742Z,56.43
2018-02-27T11:54:00.064Z,56.81
2018-02-27T11:55:14.247Z,56.24
2018-02-27T11:56:28.816Z,56.52
2018-02-27T11:57:43.074Z,56.52
2018-02-27T11:58:57.142Z,56.43
2018-02-27T12:00:11.228Z,56.43
2018-02-27T12:01:25.774Z,56.52
2018-02-27T12:02:39.638Z,56.62
2018-02-27T12:03:53.683Z,56.43
2018-02-27T12:05:08.210Z,56.62
2018-02-27T12:06:23.061Z,56.62
2018-02-27T12:07:37.396Z,56.62
2018-02-27T12:08:51.093Z,56.24
2018-02-27T12:10:05.356Z,56.15
2018-02-27T12:11:19.886Z,55.3
2018-02-27T12:12:33.905Z,55.11
2018-02-27T12:13:47.684Z,55.49
2018-02-27T12:15:01.987Z,55.2
2018-02-27T12:16:16.681Z,55.11
2018-02-27T12:17:30.939Z,55.39
2018-02-27T12:18:45.985Z,55.77
2018-02-27T12:19:59.765Z,55.01
2018-02-27T12:21:13.559Z,55.39
2018-02-27T12:22:27.404Z,55.3
2018-02-27T12:23:41.694Z,55.11
2018-02-27T12:24:56.524Z,54.82
2018-02-27T12:26:10.818Z,54.82
2018-02-27T12:27:25.095Z,54.92
2018-02-27T12:28:39.384Z,54.44
2018-02-27T12:29:53.910Z,54.35
2018-02-27T12:31:08.692Z,54.44
2018-02-27T12:32:23.198Z,54.73
2018-02-27T12:33:37.732Z,54.63
2018-02-27T12:34:52.240Z,54.44
2018-02-27T12:36:06.475Z,54.44
2018-02-27T12:37:21.281Z,54.35
2018-02-27T12:38:35.627Z,54.54
2018-02-27T12:39:49.882Z,54.07
2018-02-27T12:41:03.878Z,53.59
2018-02-27T12:42:17.887Z,53.69
2018-02-27T12:43:32.692Z,54.07
2018-02-27T12:44:47.467Z,53.97
2018-02-27T12:46:02.020Z,53.97
2018-02-27T12:47:16.069Z,53.97
2018-02-27T12:48:30.580Z,53.97
2018-02-27T12:49:45.521Z,54.07
2018-02-27T12:50:59.571Z,53.5
2018-02-27T12:52:14.081Z,53.59
2018-02-27T12:53:28.364Z,53.97
2018-02-27T12:54:42.695Z,53.69
2018-02-27T12:55:56.811Z,53.69
2018-02-27T12:57:10.857Z,54.07
2018-02-27T12:58:24.711Z,53.88
2018-02-27T12:59:39.520Z,53.22
2018-02-27T13:00:53.293Z,53.13
2018-02-27T13:02:08.332Z,53.15
2018-02-27T13:03:22.603Z,52.68
2018-02-27T13:04:37.186Z,52.47
2018-02-27T13:05:51.461Z,52.11
2018-02-27T13:07:05.723Z,52.02
2018-02-27T13:08:20.311Z,51.73
2018-02-27T13:09:34.820Z,51.83
2018-02-27T13:10:48.824Z,51.36
2018-02-27T13:12:02.853Z,51.36
2018-02-27T13:13:17.539Z,50.98
2018-02-27T13:14:30.622Z,50.89
2018-02-27T13:15:44.755Z,51.07
2018-02-27T13:16:59.327Z,51.26
2018-02-27T13:18:14.078Z,50.98
2018-02-27T13:19:28.422Z,51.45
2018-02-27T13:20:42.872Z,51.07
2018-02-27T13:21:57.451Z,50.89
2018-02-27T13:23:12.067Z,51.45
2018-02-27T13:24:26.876Z,51.26
2018-02-27T13:25:41.302Z,50.6
2018-02-27T13:26:55.890Z,50.42
2018-02-27T13:28:09.950Z,50.51
2018-02-27T13:29:24.462Z,50.7
2018-02-27T13:30:38.447Z,50.7
2018-02-27T13:31:52.752Z,50.32
2018-02-27T13:33:07.321Z,50.32
2018-02-27T13:34:21.807Z,50.13
2018-02-27T13:35:35.872Z,50.23
2018-02-27T13:36:49.671Z,50.23
2018-02-27T13:38:03.708Z,49.85
2018-02-27T13:39:17.805Z,49.85
2018-02-27T13:40:31.822Z,49.76
2018-02-27T13:41:46.609Z,49.94
2018-02-27T13:43:01.233Z,50.23
2018-02-27T13:44:15.506Z,49.85
2018-02-27T13:45:30.334Z,49.85
2018-02-27T13:46:43.858Z,50.13
2018-02-27T13:47:57.696Z,49.28
2018-02-27T13:49:11.102Z,49.28
2018-02-27T13:50:32.602Z,49.47
2018-02-27T13:51:47.149Z,49.28
2018-02-27T13:53:01.369Z,49.28
2018-02-27T13:54:15.661Z,49.19
2018-02-27T13:55:29.457Z,49.28
2018-02-27T13:56:43.576Z,49.76
2018-02-27T13:57:57.893Z,49.57
2018-02-27T13:59:12.251Z,49.66
2018-02-27T14:00:26.288Z,49.66
2018-02-27T14:01:40.526Z,49.57
2018-02-27T14:02:54.819Z,49.28
2018-02-27T14:04:09.867Z,49.09
2018-02-27T14:05:23.869Z,49
2018-02-27T14:06:37.890Z,48.62
2018-02-27T14:07:51.179Z,48.9
2018-02-27T14:09:04.951Z,49.09
2018-02-27T14:10:18.712Z,48.62
2018-02-27T14:11:32.959Z,48.71
2018-02-27T14:12:46.933Z,47.96
2018-02-27T14:14:01.188Z,48.15
2018-02-27T14:15:15.706Z,47.96
2018-02-27T14:16:30.036Z,48.05
2018-02-27T14:17:44.031Z,48.05
2018-02-27T14:18:58.527Z,47.86
2018-02-27T14:20:13.261Z,48.05
2018-02-27T14:21:27.328Z,47.96
2018-02-27T14:22:41.871Z,48.05
2018-02-27T14:23:56.093Z,47.96
2018-02-27T14:25:10.104Z,47.96
2018-02-27T14:26:24.661Z,48.15
2018-02-27T14:27:39.262Z,48.15
2018-02-27T14:28:53.574Z,47.96
2018-02-27T14:30:07.989Z,47.96
2018-02-27T14:31:21.761Z,47.96
2018-02-27T14:32:36.154Z,47.67
2018-02-27T14:33:50.441Z,47.77
2018-02-27T14:35:04.730Z,47.58
2018-02-27T14:36:19.039Z,47.96
2018-02-27T14:37:33.089Z,47.67
2018-02-27T14:38:47.606Z,47.39
2018-02-27T14:40:01.897Z,47.49
2018-02-27T14:41:16.165Z,47.2
2018-02-27T14:42:30.174Z,47.2
2018-02-27T14:43:44.451Z,47.2
2018-02-27T14:44:59.014Z,47.11
2018-02-27T14:46:12.839Z,47.02
2018-02-27T14:47:27.123Z,47.2
2018-02-27T14:48:41.183Z,47.3
2018-02-27T14:49:55.492Z,46.92
2018-02-27T14:51:09.815Z,46.64
2018-02-27T14:52:23.833Z,47.02
2018-02-27T14:53:38.122Z,46.55
2018-02-27T14:54:52.669Z,46.83
2018-02-27T14:56:06.490Z,46.17
2018-02-27T14:57:20.768Z,46.26
2018-02-27T14:58:34.066Z,46.83
2018-02-27T14:59:48.091Z,46.64
2018-02-27T15:01:01.914Z,46.55
2018-02-27T15:02:15.999Z,46.26
2018-02-27T15:03:30.397Z,46.17
2018-02-27T15:04:44.165Z,45.98
2018-02-27T15:05:57.978Z,46.26
2018-02-27T15:07:12.251Z,46.07
2018-02-27T15:08:26.531Z,46.36
2018-02-27T15:09:40.803Z,46.55
2018-02-27T15:10:55.044Z,46.73
2018-02-27T15:12:09.585Z,46.55
2018-02-27T15:13:24.346Z,46.92
2018-02-27T15:14:38.384Z,46.64
2018-02-27T15:15:53.165Z,46.64
2018-02-27T15:17:07.172Z,47.11
2018-02-27T15:18:21.915Z,47.02
2018-02-27T15:19:36.416Z,47.2
2018-02-27T15:20:51.177Z,47.58
2018-02-27T15:22:05.661Z,46.73
2018-02-27T15:23:20.149Z,46.83
2018-02-27T15:24:33.917Z,46.55
2018-02-27T15:25:48.188Z,46.64
2018-02-27T15:27:02.487Z,46.26
2018-02-27T15:28:16.761Z,46.26
2018-02-27T15:29:31.040Z,46.26
2018-02-27T15:30:45.783Z,46.55
2018-02-27T15:31:59.800Z,46.64
2018-02-27T15:33:13.943Z,47.02
2018-02-27T15:34:28.179Z,46.83
2018-02-27T15:35:42.687Z,47.02
2018-02-27T15:36:56.804Z,46.55
2018-02-27T15:38:11.019Z,46.64
2018-02-27T15:39:25.027Z,46.83
2018-02-27T15:40:39.428Z,47.39
2018-02-27T15:41:53.480Z,47.39
2018-02-27T15:43:07.294Z,47.3
2018-02-27T15:44:21.843Z,47.49
2018-02-27T15:45:35.171Z,47.2
2018-02-27T15:46:49.693Z,47.02
2018-02-27T15:48:03.671Z,47.11
2018-02-27T15:49:18.376Z,47.2
2018-02-27T15:50:32.862Z,47.2
2018-02-27T15:51:47.873Z,47.49
2018-02-27T15:53:02.447Z,47.86
2018-02-27T15:54:16.955Z,47.58
2018-02-27T15:55:31.462Z,47.96
2018-02-27T15:56:45.523Z,47.96
2018-02-27T15:57:59.851Z,48.05
2018-02-27T15:59:13.663Z,48.62
2018-02-27T16:00:27.956Z,48.52
2018-02-27T16:01:41.777Z,48.71
2018-02-27T16:02:55.842Z,48.71